createdAt,value
2023-07-24T00:02:03.380Z,22.50
2023-07-24T00:04:33.101Z,22.40
2023-07-24T00:07:02.455Z,22.30
2023-07-24T00:09:33.556Z,22.20
2023-07-24T00:12:01.925Z,22.30
2023-07-24T00:14:31.688Z,22.30
2023-07-24T00:17:00.335Z,22.30
2023-07-24T00:19:28.659Z,22.30
2023-07-24T00:21:57.065Z,22.30
2023-07-24T00:24:25.480Z,22.40
2023-07-24T00:26:53.778Z,22.30
2023-07-24T00:29:21.870Z,22.20
2023-07-24T00:31:51.099Z,22.10
2023-07-24T00:34:19.013Z,22.10
2023-07-24T00:36:46.907Z,22.00
2023-07-24T00:39:16.872Z,22.10
2023-07-24T00:41:45.812Z,22.20
2023-07-24T00:44:13.741Z,22.30
2023-07-24T00:46:41.773Z,22.20
2023-07-24T00:49:11.124Z,22.10
2023-07-24T00:51:39.025Z,22.10
2023-07-24T00:54:09.296Z,22.30
2023-07-24T00:56:37.326Z,22.40
2023-07-24T00:59:05.766Z,22.50
2023-07-24T01:01:34.250Z,22.40
2023-07-24T01:04:05.485Z,22.40
2023-07-24T01:06:35.273Z,22.50
2023-07-24T01:09:03.629Z,22.40
2023-07-24T01:11:38.594Z,22.30
2023-07-24T01:14:12.916Z,22.40
2023-07-24T01:16:44.600Z,22.60
2023-07-24T01:19:20.172Z,22.70
2023-07-24T01:22:01.293Z,22.60
2023-07-24T01:24:36.161Z,22.60
2023-07-24T01:27:09.289Z,22.50
2023-07-24T01:29:37.669Z,22.50
2023-07-24T01:32:06.835Z,22.40
2023-07-24T01:34:35.268Z,22.30
2023-07-24T01:37:04.272Z,22.30
2023-07-24T01:39:32.796Z,22.30
2023-07-24T01:42:01.315Z,22.30
2023-07-24T01:44:31.079Z,22.40
2023-07-24T01:46:59.148Z,22.40
2023-07-24T01:49:26.988Z,22.60
2023-07-24T01:51:54.812Z,22.60
2023-07-24T01:54:22.720Z,22.70
2023-07-24T01:56:50.548Z,22.60
2023-07-24T01:59:18.408Z,22.40
2023-07-24T02:01:47.647Z,22.40
2023-07-24T02:04:15.499Z,22.60
2023-07-24T02:06:43.407Z,22.70
2023-07-24T02:09:12.460Z,22.80
2023-07-24T02:11:40.338Z,22.80
2023-07-24T02:14:08.201Z,22.90
2023-07-24T02:16:36.107Z,23.00
2023-07-24T02:19:05.362Z,23.10
2023-07-24T02:21:33.730Z,23.00
2023-07-24T02:24:01.572Z,23.00
2023-07-24T02:26:29.674Z,23.00
2023-07-24T02:28:57.635Z,23.10
2023-07-24T02:31:25.566Z,23.10
2023-07-24T02:33:53.504Z,23.10
2023-07-24T02:36:22.698Z,23.00
2023-07-24T02:38:50.614Z,23.10
2023-07-24T02:41:18.538Z,23.10
2023-07-24T02:43:46.378Z,23.00
2023-07-24T02:46:14.204Z,23.00
2023-07-24T02:48:42.163Z,23.00
2023-07-24T02:51:09.996Z,23.00
2023-07-24T02:53:39.212Z,22.90
2023-07-24T02:56:07.125Z,22.90
2023-07-24T02:58:35.027Z,22.90
2023-07-24T03:01:07.594Z,22.80
2023-07-24T03:03:35.829Z,22.80
2023-07-24T03:06:04.338Z,22.80
2023-07-24T03:08:32.197Z,22.80
2023-07-24T03:11:03.313Z,22.70
2023-07-24T03:13:31.380Z,22.60
2023-07-24T03:16:00.327Z,22.60
2023-07-24T03:18:28.288Z,22.40
2023-07-24T03:20:56.138Z,22.30
2023-07-24T03:23:24.098Z,22.30
2023-07-24T03:25:52.204Z,22.40
2023-07-24T03:28:21.448Z,22.40
2023-07-24T03:30:49.493Z,22.50
2023-07-24T03:33:18.141Z,22.50
2023-07-24T03:35:46.026Z,22.60
2023-07-24T03:38:14.009Z,22.70
2023-07-24T03:40:43.788Z,22.60
2023-07-24T03:43:11.680Z,22.60
2023-07-24T03:45:40.900Z,22.60
2023-07-24T03:48:08.797Z,22.50
2023-07-24T03:50:36.718Z,22.30
2023-07-24T03:53:04.617Z,22.30
2023-07-24T03:55:35.379Z,22.30
2023-07-24T03:58:03.409Z,22.30
2023-07-24T04:00:31.276Z,22.50
2023-07-24T04:03:00.569Z,22.50
2023-07-24T04:05:28.454Z,22.40
2023-07-24T04:07:56.992Z,22.30
2023-07-24T04:10:24.954Z,22.20
2023-07-24T04:12:52.862Z,22.30
2023-07-24T04:15:20.915Z,22.50
2023-07-24T04:17:48.885Z,22.40
2023-07-24T04:20:18.219Z,22.40
2023-07-24T04:22:46.105Z,22.40
2023-07-24T04:25:14.061Z,22.20
2023-07-24T04:27:44.604Z,22.20
2023-07-24T04:30:13.346Z,22.30
2023-07-24T04:32:41.243Z,22.20
2023-07-24T04:35:09.743Z,22.30
2023-07-24T04:37:38.924Z,22.30
2023-07-24T04:40:07.961Z,22.40
2023-07-24T04:42:35.920Z,22.40
2023-07-24T04:45:03.836Z,22.50
2023-07-24T04:47:31.932Z,22.40
2023-07-24T04:49:59.789Z,22.40
2023-07-24T04:52:27.640Z,22.30
2023-07-24T04:54:56.902Z,22.50
2023-07-24T04:57:24.824Z,22.60
2023-07-24T04:59:52.716Z,22.60
2023-07-24T05:02:20.556Z,22.30
2023-07-24T05:04:48.519Z,22.20
2023-07-24T05:07:16.453Z,22.40
2023-07-24T05:09:44.376Z,22.70
2023-07-24T05:12:13.587Z,22.80
2023-07-24T05:14:41.486Z,22.90
2023-07-24T05:17:11.437Z,22.90
2023-07-24T05:19:39.626Z,23.10
2023-07-24T05:22:11.425Z,23.20
2023-07-24T05:24:39.676Z,23.10
2023-07-24T05:27:07.706Z,22.90
2023-07-24T05:29:37.057Z,23.00
2023-07-24T05:32:05.611Z,23.10
2023-07-24T05:34:33.955Z,23.10
2023-07-24T05:37:01.971Z,23.20
2023-07-24T05:39:31.926Z,23.20
2023-07-24T05:41:59.942Z,23.00
2023-07-24T05:44:27.799Z,23.00
2023-07-24T05:46:57.140Z,23.10
2023-07-24T05:49:25.071Z,23.00
2023-07-24T05:51:55.049Z,23.00
2023-07-24T05:54:22.931Z,23.20
2023-07-24T05:56:51.084Z,23.10
2023-07-24T05:59:18.936Z,23.20
2023-07-24T06:01:46.890Z,23.20
2023-07-24T06:04:16.394Z,23.20
2023-07-24T06:06:45.778Z,23.20
2023-07-24T06:09:13.742Z,23.30
2023-07-24T06:11:41.671Z,23.20
2023-07-24T06:14:09.480Z,23.40
2023-07-24T06:16:37.513Z,23.50
2023-07-24T06:19:05.416Z,23.50
2023-07-24T06:21:34.642Z,23.50
2023-07-24T06:24:02.522Z,23.50
2023-07-24T06:26:30.925Z,23.70
2023-07-24T06:28:58.966Z,23.70
2023-07-24T06:31:26.929Z,23.90
2023-07-24T06:33:54.926Z,23.80
2023-07-24T06:36:22.804Z,23.90
2023-07-24T06:38:52.022Z,24.00
2023-07-24T06:41:21.139Z,24.10
2023-07-24T06:43:49.096Z,24.10
2023-07-24T06:46:17.231Z,24.10
2023-07-24T06:48:45.149Z,24.10
2023-07-24T06:51:13.104Z,24.20
2023-07-24T06:53:40.983Z,24.20
2023-07-24T06:56:10.512Z,24.10
2023-07-24T06:58:38.519Z,24.10
2023-07-24T07:01:08.201Z,24.30
2023-07-24T07:03:36.915Z,24.50
2023-07-24T07:06:06.547Z,24.40
2023-07-24T07:08:34.763Z,24.50
2023-07-24T07:11:03.296Z,24.50
2023-07-24T07:13:32.923Z,24.60
2023-07-24T07:16:00.782Z,24.80
2023-07-24T07:18:29.041Z,24.80
2023-07-24T07:20:56.949Z,24.70
2023-07-24T07:23:25.008Z,24.90
2023-07-24T07:25:53.571Z,25.00
2023-07-24T07:28:22.346Z,25.10
2023-07-24T07:30:51.929Z,24.80
2023-07-24T07:33:22.639Z,24.80
2023-07-24T07:35:50.487Z,24.90
2023-07-24T07:38:18.564Z,24.70
2023-07-24T07:40:46.380Z,24.70
2023-07-24T07:43:14.589Z,24.70
2023-07-24T07:45:42.505Z,24.80
2023-07-24T07:48:11.810Z,25.00
2023-07-24T07:50:39.643Z,25.10
2023-07-24T07:53:08.574Z,25.20
2023-07-24T07:55:36.410Z,25.30
2023-07-24T07:58:04.334Z,25.50
2023-07-24T08:00:32.285Z,25.50
2023-07-24T08:03:00.261Z,25.80
2023-07-24T08:05:30.264Z,25.80
2023-07-24T08:07:58.266Z,26.00
2023-07-24T08:10:26.322Z,26.10
2023-07-24T08:12:54.258Z,26.10
2023-07-24T08:15:22.171Z,26.00
2023-07-24T08:17:50.378Z,26.10
2023-07-24T08:20:18.362Z,26.40
2023-07-24T08:22:47.616Z,26.50
2023-07-24T08:25:15.609Z,26.50
2023-07-24T08:28:00.746Z,26.30
2023-07-24T08:30:33.181Z,26.30
2023-07-24T08:33:01.212Z,26.50
2023-07-24T08:35:29.361Z,26.80
2023-07-24T08:37:58.743Z,26.60
2023-07-24T08:40:26.575Z,26.60
2023-07-24T08:42:55.965Z,26.60
2023-07-24T08:45:25.392Z,26.40
2023-07-24T08:47:53.322Z,26.30
2023-07-24T08:50:22.715Z,26.00
2023-07-24T08:52:50.888Z,26.00
2023-07-24T08:55:21.932Z,26.10
2023-07-24T08:57:49.977Z,25.90
2023-07-24T09:00:18.501Z,26.00
2023-07-24T09:02:46.654Z,26.30
2023-07-24T09:05:16.302Z,26.50
2023-07-24T09:07:44.338Z,26.70
2023-07-24T09:10:12.434Z,26.80
2023-07-24T09:12:44.745Z,26.70
2023-07-24T09:15:13.188Z,26.60
2023-07-24T09:17:50.265Z,26.60
2023-07-24T09:20:31.474Z,26.50
2023-07-24T09:25:34.901Z,26.20
2023-07-24T09:28:12.071Z,25.70
2023-07-24T09:30:40.457Z,25.00
2023-07-24T09:33:08.545Z,24.10
2023-07-24T09:35:36.556Z,23.80
2023-07-24T09:38:06.558Z,24.00
2023-07-24T09:40:43.299Z,24.30
2023-07-24T09:45:56.075Z,25.00
2023-07-24T09:50:57.916Z,25.20
2023-07-24T09:53:33.386Z,25.60
2023-07-24T09:56:04.959Z,25.80
2023-07-24T09:58:36.225Z,25.90
2023-07-24T10:01:06.868Z,26.10
2023-07-24T10:03:36.540Z,26.00
2023-07-24T10:06:05.081Z,26.00
2023-07-24T10:08:33.206Z,26.10
2023-07-24T10:11:01.356Z,26.40
2023-07-24T10:13:30.692Z,26.50
2023-07-24T10:16:00.144Z,26.40
2023-07-24T10:18:30.856Z,26.60
2023-07-24T10:21:07.217Z,26.90
2023-07-24T10:23:37.130Z,27.00
2023-07-24T10:26:06.039Z,27.00
2023-07-24T10:28:35.428Z,26.90
2023-07-24T10:31:07.018Z,26.80
2023-07-24T10:33:35.363Z,26.90
2023-07-24T10:36:10.514Z,26.90
2023-07-24T10:38:40.402Z,27.00
2023-07-24T10:41:09.656Z,27.20
2023-07-24T10:43:47.762Z,27.20
2023-07-24T10:46:20.110Z,27.50
2023-07-24T10:48:50.395Z,27.60
2023-07-24T10:51:18.484Z,27.60
2023-07-24T10:53:48.034Z,27.70
2023-07-24T10:56:16.554Z,27.90
2023-07-24T10:58:44.575Z,28.00
2023-07-24T11:01:12.889Z,28.00
2023-07-24T11:03:44.106Z,27.80
2023-07-24T11:06:15.903Z,27.70
2023-07-24T11:08:43.929Z,27.50
2023-07-24T11:11:13.271Z,27.50
2023-07-24T11:13:41.148Z,27.70
2023-07-24T11:16:11.146Z,27.70
2023-07-24T11:18:54.802Z,27.80
2023-07-24T11:21:24.297Z,28.10
2023-07-24T11:23:53.628Z,28.40
2023-07-24T11:26:22.844Z,28.50
2023-07-24T11:28:51.226Z,28.30
2023-07-24T11:31:20.863Z,28.50
2023-07-24T11:33:51.416Z,28.30
2023-07-24T11:36:19.520Z,28.10
2023-07-24T11:38:47.801Z,27.90
2023-07-24T11:41:17.233Z,28.00
2023-07-24T11:43:48.955Z,28.10
2023-07-24T11:46:28.192Z,28.20
2023-07-24T11:48:58.984Z,28.20
2023-07-24T11:51:29.671Z,28.20
2023-07-24T11:54:08.273Z,28.00
2023-07-24T11:56:36.373Z,27.70
2023-07-24T11:59:12.386Z,27.10
2023-07-24T12:01:40.315Z,27.10
2023-07-24T12:04:09.826Z,27.30
2023-07-24T12:06:39.473Z,27.50
2023-07-24T12:09:07.589Z,27.20
2023-07-24T12:11:36.079Z,27.30
2023-07-24T12:14:03.891Z,27.60
2023-07-24T12:16:31.936Z,27.80
2023-07-24T12:18:59.836Z,27.70
2023-07-24T12:21:29.530Z,27.90
2023-07-24T12:23:57.469Z,27.80
2023-07-24T12:26:26.351Z,27.70
2023-07-24T12:28:54.164Z,27.80
2023-07-24T12:31:22.511Z,27.90
2023-07-24T12:33:50.598Z,28.30
2023-07-24T12:36:18.484Z,28.50
2023-07-24T12:38:49.562Z,28.30
2023-07-24T12:41:17.411Z,28.30
2023-07-24T12:43:46.034Z,28.50
2023-07-24T12:46:13.941Z,28.60
2023-07-24T12:48:41.849Z,28.80
2023-07-24T12:51:09.693Z,28.70
2023-07-24T12:53:49.772Z,28.90
2023-07-24T12:56:26.747Z,29.10
2023-07-24T12:58:54.609Z,29.20
2023-07-24T13:01:22.512Z,29.00
2023-07-24T13:03:50.411Z,29.10
2023-07-24T13:06:18.418Z,29.30
2023-07-24T13:08:46.407Z,29.20
2023-07-24T13:11:14.223Z,29.20
2023-07-24T13:13:43.522Z,29.30
2023-07-24T13:16:11.684Z,29.30
2023-07-24T13:18:39.560Z,29.20
2023-07-24T13:21:08.826Z,28.70
2023-07-24T13:23:36.840Z,28.70
2023-07-24T13:26:04.738Z,28.70
2023-07-24T13:28:32.933Z,28.40
2023-07-24T13:31:14.561Z,28.20
2023-07-24T13:33:42.467Z,28.10
2023-07-24T13:36:10.749Z,28.10
2023-07-24T13:38:39.011Z,28.20
2023-07-24T13:41:06.869Z,28.50
2023-07-24T13:43:35.312Z,28.60
2023-07-24T13:46:04.847Z,28.70
2023-07-24T13:48:33.037Z,28.70
2023-07-24T13:51:00.956Z,28.80
2023-07-24T13:53:28.820Z,28.70
2023-07-24T13:55:56.747Z,28.60
2023-07-24T13:58:24.674Z,28.40
2023-07-24T14:00:52.594Z,28.70
2023-07-24T14:03:21.981Z,28.70
2023-07-24T14:05:49.912Z,28.50
2023-07-24T14:08:17.785Z,28.00
2023-07-24T14:10:45.630Z,28.00
2023-07-24T14:13:13.496Z,27.90
2023-07-24T14:15:41.365Z,27.90
2023-07-24T14:18:09.175Z,27.70
2023-07-24T14:20:41.339Z,27.50
2023-07-24T14:23:09.791Z,27.40
2023-07-24T14:25:37.626Z,27.30
2023-07-24T14:28:05.777Z,27.30
2023-07-24T14:30:33.592Z,27.30
2023-07-24T14:33:01.531Z,27.20
2023-07-24T14:35:29.528Z,27.10
2023-07-24T14:37:58.706Z,27.20
2023-07-24T14:40:26.871Z,27.30
2023-07-24T14:42:54.713Z,27.20
2023-07-24T14:45:22.719Z,27.30
2023-07-24T14:47:50.683Z,27.40
2023-07-24T14:50:18.763Z,27.80
2023-07-24T14:52:46.741Z,27.90
2023-07-24T14:55:16.832Z,27.90
2023-07-24T14:57:45.362Z,27.80
2023-07-24T15:00:14.424Z,27.80
2023-07-24T15:02:42.367Z,27.70
2023-07-24T15:05:10.345Z,27.20
2023-07-24T15:07:38.829Z,26.80
2023-07-24T15:10:07.942Z,26.40
2023-07-24T15:12:37.143Z,26.40
2023-07-24T15:15:08.774Z,26.40
2023-07-24T15:17:36.761Z,26.40
2023-07-24T15:20:04.959Z,26.30
2023-07-24T15:22:32.978Z,25.70
2023-07-24T15:25:00.804Z,24.80
2023-07-24T15:27:28.661Z,23.40
2023-07-24T15:29:57.934Z,21.60
2023-07-24T15:32:25.960Z,20.40
2023-07-24T15:34:53.865Z,19.40
2023-07-24T15:37:21.759Z,19.10
2023-07-24T15:39:49.605Z,18.80
2023-07-24T15:42:17.414Z,18.70
2023-07-24T15:44:45.270Z,18.40
2023-07-24T15:47:14.519Z,18.90
2023-07-24T15:49:42.466Z,19.20
2023-07-24T15:52:11.193Z,19.50
2023-07-24T15:54:39.112Z,19.70
2023-07-24T15:57:07.073Z,20.10
2023-07-24T15:59:34.900Z,20.30
2023-07-24T16:02:03.260Z,20.40
2023-07-24T16:04:32.821Z,20.50
2023-07-24T16:07:00.737Z,20.60
2023-07-24T16:09:28.691Z,20.70
2023-07-24T16:11:56.543Z,20.90
2023-07-24T16:14:24.600Z,21.00
2023-07-24T16:16:52.455Z,21.20
2023-07-24T16:19:22.524Z,21.30
2023-07-24T16:21:52.986Z,21.40
2023-07-24T16:24:21.314Z,21.50
2023-07-24T16:26:50.329Z,21.50
2023-07-24T16:29:19.258Z,21.50
2023-07-24T16:31:47.209Z,21.50
2023-07-24T16:34:15.264Z,21.60
2023-07-24T16:36:43.377Z,21.80
2023-07-24T16:39:12.770Z,22.00
2023-07-24T16:41:41.487Z,22.10
2023-07-24T16:46:42.576Z,22.20
2023-07-24T16:49:11.455Z,22.10
2023-07-24T16:51:39.334Z,22.00
2023-07-24T16:54:07.491Z,22.10
2023-07-24T16:56:36.734Z,21.60
2023-07-24T16:59:04.655Z,21.80
2023-07-24T17:01:33.003Z,22.00
2023-07-24T17:04:01.470Z,22.00
2023-07-24T17:06:29.627Z,22.10
2023-07-24T17:08:57.498Z,22.30
2023-07-24T17:11:25.361Z,22.50
2023-07-24T17:13:54.532Z,22.70
2023-07-24T17:16:22.547Z,22.70
2023-07-24T17:18:55.199Z,22.80
2023-07-24T17:21:23.141Z,22.70
2023-07-24T17:23:51.107Z,22.70
2023-07-24T17:26:19.052Z,22.80
2023-07-24T17:28:48.235Z,22.80
2023-07-24T17:31:17.707Z,22.70
2023-07-24T17:33:45.606Z,22.70
2023-07-24T17:36:13.699Z,22.30
2023-07-24T17:38:41.495Z,22.40
2023-07-24T17:41:10.487Z,22.50
2023-07-24T17:43:38.396Z,22.60
2023-07-24T17:46:06.324Z,22.40
2023-07-24T17:48:38.014Z,22.30
2023-07-24T17:51:05.926Z,22.40
2023-07-24T17:53:33.715Z,22.50
2023-07-24T17:56:01.703Z,22.50
2023-07-24T17:58:29.755Z,22.60
2023-07-24T18:00:57.671Z,22.70
2023-07-24T18:03:25.858Z,22.70
2023-07-24T18:05:57.366Z,22.70
2023-07-24T18:08:25.206Z,22.70
2023-07-24T18:10:53.269Z,22.60
2023-07-24T18:13:21.196Z,22.60
2023-07-24T18:15:48.997Z,22.50
2023-07-24T18:18:17.113Z,22.50
2023-07-24T18:20:45.011Z,22.30
2023-07-24T18:23:14.746Z,22.30
2023-07-24T18:25:42.593Z,22.30
2023-07-24T18:28:12.640Z,22.20
2023-07-24T18:30:40.575Z,22.30
2023-07-24T18:33:08.575Z,22.20
2023-07-24T18:35:36.451Z,22.30
2023-07-24T18:38:04.319Z,22.20
2023-07-24T18:40:33.501Z,22.10
2023-07-24T18:43:01.317Z,22.10
2023-07-24T18:45:29.218Z,22.10
2023-07-24T18:47:59.107Z,22.20
2023-07-24T18:50:26.973Z,22.10
2023-07-24T18:52:54.853Z,21.90
2023-07-24T18:55:22.661Z,21.80
2023-07-24T18:57:51.820Z,21.60
2023-07-24T19:00:19.698Z,21.60
2023-07-24T19:02:47.590Z,21.40
2023-07-24T19:05:15.669Z,21.50
2023-07-24T19:07:43.530Z,21.40
2023-07-24T19:10:13.330Z,21.50
2023-07-24T19:12:41.883Z,21.40
2023-07-24T19:15:11.895Z,21.30
2023-07-24T19:17:41.858Z,21.20
2023-07-24T19:20:10.838Z,21.10
2023-07-24T19:22:38.712Z,21.10
2023-07-24T19:25:07.839Z,21.10
2023-07-24T19:27:36.400Z,21.00
2023-07-24T19:30:08.189Z,20.90
2023-07-24T19:32:40.467Z,20.90
2023-07-24T19:35:10.138Z,20.80
2023-07-24T19:37:38.006Z,20.80
2023-07-24T19:40:07.180Z,21.00
2023-07-24T19:42:35.009Z,21.00
2023-07-24T19:45:03.182Z,21.10
2023-07-24T19:47:31.167Z,20.90
2023-07-24T19:50:00.382Z,20.60
2023-07-24T19:52:31.406Z,20.40
2023-07-24T19:55:00.042Z,20.40
2023-07-24T19:57:28.301Z,20.40
2023-07-24T19:59:56.172Z,20.30
2023-07-24T20:02:24.151Z,20.30
2023-07-24T20:04:52.140Z,20.60
2023-07-24T20:07:21.454Z,20.60
2023-07-24T20:09:50.868Z,20.40
2023-07-24T20:12:19.044Z,20.50
2023-07-24T20:14:49.087Z,20.50
2023-07-24T20:17:17.108Z,20.30
2023-07-24T20:19:44.922Z,20.20
2023-07-24T20:22:12.741Z,19.70
2023-07-24T20:24:41.999Z,19.60
2023-07-24T20:27:09.889Z,19.80
2023-07-24T20:29:37.705Z,19.80
2023-07-24T20:32:06.287Z,19.50
2023-07-24T20:34:35.684Z,19.10
2023-07-24T20:37:03.530Z,18.50
2023-07-24T20:39:31.437Z,18.70
2023-07-24T20:42:00.717Z,19.00
2023-07-24T20:44:28.527Z,19.00
2023-07-24T20:46:56.369Z,19.10
2023-07-24T20:49:24.503Z,19.00
2023-07-24T20:51:52.793Z,19.00
2023-07-24T20:54:20.639Z,19.10
2023-07-24T20:56:48.878Z,19.20
2023-07-24T20:59:18.020Z,19.30
2023-07-24T21:01:45.886Z,19.20
2023-07-24T21:04:13.769Z,19.20
2023-07-24T21:06:41.650Z,19.30
2023-07-24T21:09:09.440Z,19.40
2023-07-24T21:11:37.661Z,19.30
2023-07-24T21:14:05.572Z,19.40
2023-07-24T21:16:34.849Z,19.50
2023-07-24T21:19:03.115Z,19.40
2023-07-24T21:21:31.205Z,19.40
2023-07-24T21:23:59.239Z,19.50
2023-07-24T21:26:29.085Z,19.60
2023-07-24T21:28:57.091Z,19.60
2023-07-24T21:31:24.922Z,19.60
2023-07-24T21:33:54.118Z,19.60
2023-07-24T21:36:21.943Z,19.40
2023-07-24T21:38:49.761Z,19.50
2023-07-24T21:41:17.584Z,19.50
2023-07-24T21:43:45.456Z,19.50
2023-07-24T21:46:13.301Z,19.50
2023-07-24T21:48:42.054Z,19.30
2023-07-24T21:51:11.208Z,19.40
2023-07-24T21:53:39.167Z,19.30
2023-07-24T21:56:07.512Z,19.30
2023-07-24T21:58:35.515Z,19.20
2023-07-24T22:01:03.383Z,19.20
2023-07-24T22:03:31.197Z,19.10
2023-07-24T22:05:59.063Z,19.10
2023-07-24T22:08:28.343Z,19.10
2023-07-24T22:10:56.259Z,19.20
2023-07-24T22:13:24.082Z,19.30
2023-07-24T22:15:51.954Z,19.50
2023-07-24T22:18:19.829Z,19.80
2023-07-24T22:20:47.894Z,19.80
2023-07-24T22:23:15.727Z,19.80
2023-07-24T22:25:44.913Z,19.60
2023-07-24T22:28:12.747Z,19.60
2023-07-24T22:30:40.591Z,19.60
2023-07-24T22:33:08.440Z,19.70
2023-07-24T22:35:36.544Z,19.80
2023-07-24T22:38:04.769Z,19.80
2023-07-24T22:40:32.694Z,19.60
2023-07-24T22:43:01.870Z,19.80
2023-07-24T22:45:29.915Z,19.80
2023-07-24T22:47:57.865Z,19.90
2023-07-24T22:50:25.790Z,19.90
2023-07-24T22:52:53.773Z,19.80
2023-07-24T22:55:21.647Z,19.80
2023-07-24T22:57:49.474Z,19.70
2023-07-24T23:00:18.717Z,19.70
2023-07-24T23:02:46.819Z,19.40
2023-07-24T23:05:15.059Z,19.10
2023-07-24T23:07:42.888Z,19.10
2023-07-24T23:10:11.667Z,19.20
2023-07-24T23:12:39.531Z,19.20
2023-07-24T23:15:08.100Z,19.10
2023-07-24T23:17:37.337Z,19.30
2023-07-24T23:20:06.063Z,19.10
2023-07-24T23:22:33.885Z,19.10
2023-07-24T23:25:01.718Z,18.60
2023-07-24T23:27:29.860Z,18.60
2023-07-24T23:29:57.711Z,18.70
2023-07-24T23:32:25.543Z,18.90
2023-07-24T23:34:54.770Z,18.80
2023-07-24T23:37:22.783Z,18.80
2023-07-24T23:39:50.610Z,19.00
2023-07-24T23:42:18.411Z,18.80
2023-07-24T23:44:46.269Z,18.70
2023-07-24T23:47:14.133Z,18.90
2023-07-24T23:49:41.968Z,19.00
2023-07-24T23:52:11.283Z,19.10
2023-07-24T23:54:39.132Z,19.00
2023-07-24T23:57:07.245Z,19.10
2023-07-24T23:59:35.075Z,19.20
